Reriutaba, Brazil
Current Conditions -  °F | °C
As of 2:00 PM on Saturday 22 Nov 2014 (Local Time) from SBPB Reporting Station
Few Clouds Few Clouds  
Wind Chill: 93°   Ceiling: Unl
Heat Index: 103°   Visibility: 6mi
Dew Point: 73°   Wind: 25mph
Humidity: 52%   Direction: 70°ENE
Pressure: 29.77"   Gusts: NA
Location:  4.14°S, 40.58°W
Report Text: SBPB 221700Z 07022KT 9999 FEW020 34/23 Q1008
Loading
Personal Weather Stations






























Interactive Weather Map New forecast layout! Learn more

10-Day Weather Forecast

Advertisements
Track Severe Weather on mobile